< < Back
Terminal Aerodrome Forecast


Current Version              Previous Versions:   1  2  3  4  5  6  7  8  9  

Terminal Aerodrome Forecast

927
FTUS42 KJAX 171100
TAFSSI
TAF
KSSI 171120Z 1712/1812 04014G22KT P6SM OVC018
     FM171600 05015G25KT P6SM SCT020 BKN250
      TEMPO 1716/1718 BKN020
     FM172100 05014G24KT P6SM BKN030
     FM180100 06012G20KT P6SM BKN025
     FM180800 06012G20KT P6SM VCSH OVC020=



Latest METAR

277
SAUS70 KWBC 171900 RRI
MTRSSI
METAR KSSI 171853Z AUTO 03014G25KT 9SM OVC012 18/14 A3033 RMK AO2 SLP272
P0000 T01780139 PWINO $


USA.gov is the U.S. government's official web portal to all federal, state and local government web resources and services.